Time;durP1;ratioP1;P1;durP2;ratioP2;P2;SDS_P1;SDS_P2;PMS_P1;PMS_P2;Temp;Humidity;BMP_temperature;BMP_pressure;BME280_temperature;BME280_humidity;BME280_pressure;Samples;Min_cycle;Max_cycle;Signal;HPM_P1;HPM_P2
2023/01/28 00:00:10;;;;;;;38.20;22.10;;;;;;;0.88;86.15;101275.05;82361;1256;3026398;-73
2023/01/28 00:03:02;;;;;;;39.70;22.50;;;;;;;0.89;86.11;101276.61;82492;1257;3026470;-73
2023/01/28 00:05:34;;;;;;;37.10;22.60;;;;;;;0.93;86.33;101274.61;83823;1261;3013135;-73
2023/01/28 00:08:06;;;;;;;41.90;23.40;;;;;;;0.94;86.19;101279.08;82506;1259;3026333;-73
2023/01/28 00:10:38;;;;;;;34.80;21.30;;;;;;;0.92;86.09;101276.99;83819;1256;3011394;-74
2023/01/28 00:13:14;;;;;;;32.20;20.40;;;;;;;0.90;86.18;101279.19;82527;1256;3025931;-75
2023/01/28 00:15:45;;;;;;;33.90;20.80;;;;;;;0.92;86.24;101279.56;83820;1259;3011783;-73
2023/01/28 00:18:17;;;;;;;35.60;20.80;;;;;;;0.94;86.26;101276.52;82485;1261;3025718;-73
2023/01/28 00:21:00;;;;;;;32.80;21.30;;;;;;;0.94;86.06;101269.80;83825;1258;3011256;-73
2023/01/28 00:23:34;;;;;;;34.80;20.90;;;;;;;0.93;86.19;101267.55;82488;1261;3025983;-73
2023/01/28 00:26:07;;;;;;;32.20;20.50;;;;;;;0.89;86.18;101270.93;83844;1256;3011418;-74
2023/01/28 00:28:39;;;;;;;30.40;19.40;;;;;;;0.86;86.21;101268.64;82339;1258;3025614;-74
2023/01/28 00:31:16;;;;;;;28.10;17.80;;;;;;;0.87;86.19;101271.05;83827;1258;3013161;-73
2023/01/28 00:33:49;;;;;;;29.10;18.60;;;;;;;0.89;86.28;101272.30;82518;1261;3025378;-73
2023/01/28 00:36:24;;;;;;;28.70;18.80;;;;;;;0.90;86.15;101274.20;82522;1257;3026081;-72
2023/01/28 00:38:56;;;;;;;31.30;19.80;;;;;;;0.89;86.04;101274.88;83834;1259;3012930;-73
2023/01/28 00:41:30;;;;;;;33.00;20.30;;;;;;;0.86;86.11;101278.95;82510;1259;3025493;-73
2023/01/28 00:44:03;;;;;;;30.80;19.40;;;;;;;0.87;86.32;101277.59;83818;1256;3011435;-73
2023/01/28 00:46:35;;;;;;;29.00;17.60;;;;;;;0.91;86.30;101275.77;82508;1261;3025851;-72
2023/01/28 00:49:06;;;;;;;27.50;17.90;;;;;;;0.96;86.28;101271.73;83838;1256;3011343;-73
2023/01/28 00:51:39;;;;;;;27.60;18.10;;;;;;;0.95;86.30;101274.46;82509;1256;3026266;-75
2023/01/28 00:54:11;;;;;;;28.30;18.80;;;;;;;0.95;86.22;101270.00;83834;1256;3012747;-73
2023/01/28 00:56:46;;;;;;;28.80;18.90;;;;;;;0.96;86.22;101270.88;82519;1256;3026045;-72
2023/01/28 00:59:20;;;;;;;28.00;17.80;;;;;;;0.97;86.34;101269.33;83257;1260;3011461;-73
2023/01/28 01:01:52;;;;;;;25.60;16.10;;;;;;;0.95;86.00;101266.89;83856;1256;3011571;-73
2023/01/28 01:04:25;;;;;;;26.50;16.60;;;;;;;0.93;86.00;101267.90;82390;1257;3027312;-73
2023/01/28 01:06:56;;;;;;;25.60;17.60;;;;;;;0.93;86.10;101265.84;83817;1258;3011882;-74
2023/01/28 01:09:29;;;;;;;26.50;17.90;;;;;;;0.92;86.04;101266.51;82518;1255;3026711;-74
2023/01/28 01:12:00;;;;;;;27.40;18.30;;;;;;;0.95;86.27;101268.27;83812;1259;3011599;-73
2023/01/28 01:14:33;;;;;;;29.00;18.60;;;;;;;0.93;86.05;101266.19;82498;1255;3025347;-74
2023/01/28 01:17:04;;;;;;;26.20;16.80;;;;;;;0.91;86.10;101270.95;83829;1259;3011550;-73
2023/01/28 01:19:43;;;;;;;24.50;16.30;;;;;;;0.91;86.29;101265.80;82595;1257;3025930;-72
2023/01/28 01:22:15;;;;;;;24.40;16.20;;;;;;;0.93;86.28;101263.45;82512;1257;3025891;-74
2023/01/28 01:24:46;;;;;;;25.10;17.10;;;;;;;0.96;86.37;101266.58;83859;1256;3012889;-73
2023/01/28 01:27:18;;;;;;;25.90;16.80;;;;;;;0.96;86.18;101261.76;82494;1256;3025674;-73
2023/01/28 01:29:49;;;;;;;26.30;17.30;;;;;;;0.96;86.29;101262.62;83806;1257;3013310;-72
2023/01/28 01:32:21;;;;;;;25.70;16.90;;;;;;;0.96;86.18;101262.79;82504;1259;3025254;-74
2023/01/28 01:34:53;;;;;;;26.10;16.10;;;;;;;0.96;86.15;101260.39;83802;1259;3011174;-74
2023/01/28 01:37:26;;;;;;;22.30;16.00;;;;;;;0.98;86.22;101261.27;82506;1258;3025565;-74
2023/01/28 01:39:57;;;;;;;24.70;16.10;;;;;;;0.99;86.17;101261.98;83833;1258;3011385;-74
2023/01/28 01:42:30;;;;;;;21.60;15.80;;;;;;;1.00;86.30;101262.17;82500;1256;3026327;-73
2023/01/28 01:45:06;;;;;;;21.80;14.90;;;;;;;0.99;86.17;101264.90;83833;1255;3013037;-73
2023/01/28 01:47:45;;;;;;;22.60;15.80;;;;;;;0.93;85.99;101263.42;82396;1256;3028040;-74
2023/01/28 01:50:27;;;;;;;21.20;14.70;;;;;;;0.92;86.13;101262.38;82357;1261;3025923;-73
2023/01/28 01:53:02;;;;;;;20.40;14.30;;;;;;;0.93;86.23;101260.01;82507;1256;3024670;-72
2023/01/28 01:55:36;;;;;;;21.20;14.40;;;;;;;0.96;86.34;101265.72;83245;1257;3011307;-75
2023/01/28 01:58:09;;;;;;;22.00;14.60;;;;;;;0.95;86.12;101266.05;83674;1263;3011627;-72
2023/01/28 02:00:42;;;;;;;22.20;15.30;;;;;;;0.95;86.14;101265.52;82540;1258;3025374;-74
2023/01/28 02:03:14;;;;;;;25.40;15.50;;;;;;;0.92;86.22;101266.86;83813;1259;3011451;-74
2023/01/28 02:05:48;;;;;;;22.70;14.80;;;;;;;0.91;86.29;101265.63;82514;1256;3025886;-75
2023/01/28 02:08:26;;;;;;;19.50;12.60;;;;;;;0.91;86.32;101263.75;83314;1258;3011603;-73
2023/01/28 02:11:03;;;;;;;19.10;13.80;;;;;;;0.93;86.44;101265.65;82564;1258;3026048;-75
2023/01/28 02:13:39;;;;;;;20.00;14.30;;;;;;;0.94;86.34;101271.02;82503;1256;3025759;-73
2023/01/28 02:16:15;;;;;;;20.50;14.80;;;;;;;0.94;86.20;101268.27;83267;1257;3011582;-73
2023/01/28 02:18:48;;;;;;;22.70;14.70;;;;;;;0.93;86.30;101266.02;83264;1256;3011479;-73
2023/01/28 02:22:00;;;;;;;21.30;14.00;;;;;;;0.93;86.37;101270.64;83272;1258;3011441;-72
2023/01/28 02:25:11;;;;;;;19.40;13.20;;;;;;;0.94;86.35;101271.18;82504;1256;3025957;-72
2023/01/28 02:28:01;;;;;;;19.80;13.70;;;;;;;0.94;86.10;101271.17;82525;1256;3026595;-73
2023/01/28 02:30:36;;;;;;;19.90;14.50;;;;;;;0.93;86.25;101272.02;82478;1258;3025319;-72
2023/01/28 02:33:13;;;;;;;21.50;14.50;;;;;;;0.92;86.23;101278.20;82394;1260;3026181;-73
2023/01/28 02:35:48;;;;;;;22.50;14.80;;;;;;;0.89;86.15;101284.00;82505;1259;3025859;-73
2023/01/28 02:38:25;;;;;;;19.90;13.70;;;;;;;0.86;86.23;101280.14;83234;1257;3012006;-73
2023/01/28 02:41:01;;;;;;;18.30;12.90;;;;;;;0.85;86.28;101277.40;82508;1258;3025720;-74
2023/01/28 02:43:37;;;;;;;20.20;13.80;;;;;;;0.86;86.34;101277.23;82506;1258;3026017;-74
2023/01/28 02:49:29;;;;;;;20.30;14.10;;;;;;;0.88;86.60;101275.70;82368;1260;3025376;-74
2023/01/28 02:55:38;;;;;;;17.20;12.40;;;;;;;0.87;86.48;101280.52;82526;1256;3026811;-73
2023/01/28 02:58:17;;;;;;;17.10;12.10;;;;;;;0.87;86.43;101279.31;82493;1259;3026570;-72
2023/01/28 03:00:53;;;;;;;19.50;13.50;;;;;;;0.89;86.55;101283.64;82511;1256;3026302;-73
2023/01/28 03:03:34;;;;;;;18.70;12.90;;;;;;;0.89;86.60;101282.43;82468;1255;3026412;-73
2023/01/28 03:06:09;;;;;;;19.60;13.20;;;;;;;0.90;86.69;101284.02;82547;1257;3025406;-74
2023/01/28 03:37:28;;;;;;;21.00;14.40;;;;;;;0.99;86.77;101277.95;82512;1259;3025826;-72
2023/01/28 03:40:05;;;;;;;21.50;13.30;;;;;;;0.96;86.79;101275.17;82501;1256;3026402;-74
2023/01/28 03:42:41;;;;;;;21.40;13.90;;;;;;;0.96;86.82;101276.88;82477;1256;3026138;-74
2023/01/28 03:45:14;;;;;;;19.40;12.80;;;;;;;0.97;86.85;101278.44;82514;1256;3026231;-74
2023/01/28 03:47:46;;;;;;;18.60;12.90;;;;;;;1.02;86.88;101281.26;83793;1259;3011437;-74
2023/01/28 03:50:19;;;;;;;22.80;14.10;;;;;;;1.03;86.82;101282.83;82504;1256;3029231;-74
2023/01/28 03:52:52;;;;;;;23.70;14.40;;;;;;;1.03;86.73;101277.34;83670;1259;3011551;-74
2023/01/28 03:55:29;;;;;;;22.00;14.40;;;;;;;0.98;86.71;101282.77;82500;1255;3026862;-74
2023/01/28 03:58:07;;;;;;;24.70;16.30;;;;;;;0.98;86.73;101280.00;82493;1259;3025587;-74
2023/01/28 04:00:46;;;;;;;21.10;14.20;;;;;;;0.95;86.61;101280.30;83285;1256;3011559;-73
2023/01/28 04:03:21;;;;;;;20.40;13.30;;;;;;;0.98;86.75;101282.91;82488;1258;3025090;-73
2023/01/28 04:06:07;;;;;;;19.70;13.40;;;;;;;1.02;86.83;101281.60;83732;1256;3012640;-74
2023/01/28 04:08:44;;;;;;;22.40;14.70;;;;;;;1.05;86.84;101280.11;82491;1258;3026243;-73
2023/01/28 04:11:24;;;;;;;25.90;15.40;;;;;;;1.05;86.59;101281.14;82515;1259;3025733;-74
2023/01/28 04:13:57;;;;;;;22.90;14.80;;;;;;;1.01;86.47;101281.61;82455;1256;3025235;-75
2023/01/28 04:16:30;;;;;;;24.90;15.10;;;;;;;1.00;86.59;101283.46;83802;1255;3011744;-72
2023/01/28 04:19:05;;;;;;;20.60;13.40;;;;;;;1.00;86.64;101280.55;82496;1255;3027372;-71
2023/01/28 04:21:40;;;;;;;21.30;14.10;;;;;;;0.98;86.48;101278.45;82510;1254;3025824;-72
2023/01/28 04:24:14;;;;;;;19.70;13.30;;;;;;;1.03;86.48;101277.84;83333;1254;3011548;-72
2023/01/28 04:26:45;;;;;;;19.30;13.90;;;;;;;1.04;86.56;101277.88;83901;1255;3013628;-73
2023/01/28 04:29:17;;;;;;;25.70;15.10;;;;;;;1.06;86.56;101279.44;82563;1254;3026029;-72
2023/01/28 04:31:49;;;;;;;22.20;15.10;;;;;;;1.05;86.36;101282.69;83907;1255;3011381;-73
2023/01/28 04:34:21;;;;;;;23.00;14.00;;;;;;;1.02;86.52;101286.77;82493;1256;3024868;-73
2023/01/28 04:36:57;;;;;;;19.60;13.40;;;;;;;1.01;86.43;101284.36;83348;1254;3011556;-72
2023/01/28 04:39:30;;;;;;;20.40;13.50;;;;;;;0.99;86.24;101289.98;83889;1255;3012029;-72
2023/01/28 04:42:03;;;;;;;19.40;13.50;;;;;;;0.98;86.38;101288.42;82599;1259;3026634;-72
2023/01/28 04:44:35;;;;;;;20.60;13.60;;;;;;;0.98;86.38;101291.86;83880;1254;3011624;-72
2023/01/28 04:47:10;;;;;;;21.80;13.40;;;;;;;0.98;86.35;101286.88;82509;1256;3025506;-72
2023/01/28 04:49:42;;;;;;;20.10;13.20;;;;;;;0.97;86.42;101288.92;83921;1256;3011528;-73
2023/01/28 04:52:14;;;;;;;19.60;12.90;;;;;;;0.96;86.43;101289.23;82579;1254;3026137;-73
2023/01/28 04:54:45;;;;;;;22.20;13.70;;;;;;;0.93;86.28;101290.23;83870;1256;3011581;-73
2023/01/28 04:57:18;;;;;;;18.90;13.40;;;;;;;0.93;86.58;101293.33;82570;1254;3025759;-74
2023/01/28 04:59:49;;;;;;;22.80;15.20;;;;;;;0.95;86.40;101296.98;83914;1254;3011553;-73
2023/01/28 05:02:21;;;;;;;22.00;13.60;;;;;;;0.94;86.39;101299.36;82546;1254;3025882;-73
2023/01/28 05:04:52;;;;;;;21.00;12.60;;;;;;;0.92;86.43;101297.27;83756;1256;3011386;-73
2023/01/28 05:07:26;;;;;;;18.50;13.30;;;;;;;0.90;86.45;101297.06;82565;1254;3026020;-74
2023/01/28 05:09:57;;;;;;;18.20;12.40;;;;;;;0.91;86.43;101296.39;83891;1254;3011584;-73
2023/01/28 05:12:31;;;;;;;18.40;13.60;;;;;;;0.92;86.52;101299.14;82568;1256;3026138;-71
2023/01/28 05:15:09;;;;;;;19.20;12.90;;;;;;;0.94;86.52;101300.20;83364;1255;3011443;-72
2023/01/28 05:17:42;;;;;;;20.20;13.50;;;;;;;0.94;86.51;101302.61;82543;1256;3025029;-72
2023/01/28 05:20:14;;;;;;;19.60;13.20;;;;;;;0.93;86.59;101299.85;83799;1261;3011554;-73
2023/01/28 05:22:47;;;;;;;18.90;12.40;;;;;;;0.91;86.50;101300.84;82579;1256;3026462;-74
2023/01/28 05:25:22;;;;;;;17.00;11.50;;;;;;;0.89;86.44;101301.51;83890;1256;3011515;-73
2023/01/28 05:27:57;;;;;;;18.00;12.20;;;;;;;0.87;86.53;101303.70;82549;1254;3025052;-73
2023/01/28 05:30:31;;;;;;;19.80;13.10;;;;;;;0.89;86.82;101305.45;82643;1254;3025577;-73
2023/01/28 05:33:02;;;;;;;20.00;13.20;;;;;;;0.91;86.79;101305.14;83896;1255;3011591;-74
2023/01/28 05:35:35;;;;;;;21.80;13.80;;;;;;;0.89;86.65;101306.66;82558;1255;3026130;-74
2023/01/28 05:38:06;;;;;;;19.50;12.30;;;;;;;0.87;86.68;101306.80;83878;1255;3011476;-75
2023/01/28 05:40:38;;;;;;;18.00;11.80;;;;;;;0.86;86.65;101306.09;82593;1254;3025989;-72
2023/01/28 05:43:10;;;;;;;19.70;12.70;;;;;;;0.87;86.83;101307.81;83887;1255;3012835;-72
2023/01/28 05:45:42;;;;;;;17.50;12.60;;;;;;;0.88;86.89;101303.89;82588;1255;3026120;-72
2023/01/28 05:48:15;;;;;;;19.20;12.50;;;;;;;0.91;86.99;101311.84;83898;1255;3011548;-72
2023/01/28 05:50:50;;;;;;;20.20;13.40;;;;;;;0.90;86.92;101314.23;82597;1255;3025615;-74
2023/01/28 05:53:23;;;;;;;20.80;13.70;;;;;;;0.89;87.04;101313.54;83326;1256;3011931;-74
2023/01/28 05:55:54;;;;;;;21.20;12.70;;;;;;;0.89;87.07;101313.19;83862;1256;3011516;-74
2023/01/28 05:58:30;;;;;;;20.20;13.00;;;;;;;0.89;87.11;101315.06;82568;1256;3025756;-74
2023/01/28 06:01:03;;;;;;;20.80;12.70;;;;;;;0.92;87.10;101314.61;82615;1259;3025809;-74
2023/01/28 06:03:34;;;;;;;20.30;12.60;;;;;;;0.94;87.19;101314.84;83876;1254;3011515;-74
2023/01/28 06:06:07;;;;;;;19.30;13.20;;;;;;;0.95;87.11;101320.33;82587;1256;3025493;-74
2023/01/28 06:08:38;;;;;;;21.40;13.50;;;;;;;0.91;86.99;101320.43;83905;1255;3011613;-74
2023/01/28 06:11:11;;;;;;;20.80;12.70;;;;;;;0.90;87.21;101320.94;82600;1254;3024653;-73
2023/01/28 06:13:44;;;;;;;20.40;12.50;;;;;;;0.93;87.10;101324.23;83888;1254;3011611;-72
2023/01/28 06:16:16;;;;;;;19.00;12.60;;;;;;;0.96;87.34;101328.59;82629;1255;3025802;-72
2023/01/28 06:18:48;;;;;;;21.10;12.80;;;;;;;0.98;87.25;101329.30;83906;1256;3011550;-72
2023/01/28 06:21:21;;;;;;;24.80;13.60;;;;;;;0.97;87.07;101330.49;82603;1256;3026258;-72
2023/01/28 06:23:51;;;;;;;21.70;13.10;;;;;;;0.95;87.02;101333.03;83886;1255;3011583;-74
2023/01/28 06:26:24;;;;;;;22.00;12.70;;;;;;;0.94;87.27;101336.29;82598;1254;3025039;-71
2023/01/28 06:28:55;;;;;;;23.60;13.10;;;;;;;0.91;87.10;101336.41;83793;1254;3011588;-73
2023/01/28 06:31:27;;;;;;;20.20;13.00;;;;;;;0.90;87.20;101341.55;82609;1255;3025333;-74
2023/01/28 06:33:59;;;;;;;23.40;13.60;;;;;;;0.93;87.26;101340.21;83716;1259;3013345;-74
2023/01/28 06:36:31;;;;;;;23.00;14.00;;;;;;;0.97;87.36;101336.52;82588;1255;3025850;-73
2023/01/28 06:39:02;;;;;;;23.20;13.60;;;;;;;0.98;87.32;101336.52;83747;1254;3012879;-73
2023/01/28 06:41:35;;;;;;;23.60;13.80;;;;;;;0.95;87.21;101340.42;82606;1259;3026419;-73
2023/01/28 06:44:06;;;;;;;22.50;12.70;;;;;;;0.94;87.40;101342.47;83885;1254;3012912;-73
2023/01/28 06:46:39;;;;;;;21.10;13.10;;;;;;;0.94;87.56;101345.72;82574;1256;3026338;-72
2023/01/28 06:49:10;;;;;;;19.90;12.50;;;;;;;0.95;87.54;101344.56;83880;1254;3011352;-72
2023/01/28 06:51:42;;;;;;;23.90;12.90;;;;;;;0.95;87.49;101342.15;82577;1259;3026203;-74
2023/01/28 06:54:13;;;;;;;22.20;13.50;;;;;;;0.96;87.46;101344.73;83893;1256;3011470;-74
2023/01/28 06:56:45;;;;;;;21.90;13.70;;;;;;;0.96;87.52;101349.21;82604;1256;3026450;-72
2023/01/28 06:59:16;;;;;;;22.10;14.90;;;;;;;0.94;87.68;101351.41;83884;1254;3011506;-70
2023/01/28 07:01:48;;;;;;;24.10;14.70;;;;;;;0.92;87.63;101355.14;82598;1257;3027090;-71
2023/01/28 07:04:25;;;;;;;20.30;13.10;;;;;;;0.89;87.66;101358.54;83337;1256;3012588;-72
2023/01/28 07:06:58;;;;;;;18.60;12.70;;;;;;;0.90;87.80;101359.08;83949;1259;3011268;-75
2023/01/28 07:09:32;;;;;;;20.10;13.70;;;;;;;0.93;87.88;101359.98;82611;1255;3025721;-75
2023/01/28 07:12:04;;;;;;;19.90;14.20;;;;;;;0.93;87.79;101361.01;83930;1259;3011310;-73
2023/01/28 07:14:39;;;;;;;19.90;14.10;;;;;;;0.92;87.79;101363.41;82362;1262;3025780;-73
2023/01/28 07:17:11;;;;;;;24.40;13.10;;;;;;;0.93;87.75;101364.44;82620;1254;3026389;-70
2023/01/28 07:19:45;;;;;;;21.10;13.50;;;;;;;0.94;87.83;101362.23;83924;1256;3011362;-72
2023/01/28 07:22:20;;;;;;;20.40;14.60;;;;;;;0.94;87.73;101362.23;82582;1255;3026689;-73
2023/01/28 07:24:53;;;;;;;21.60;14.00;;;;;;;0.95;87.82;101368.44;83296;1256;3011603;-71
2023/01/28 07:27:24;;;;;;;21.90;14.20;;;;;;;0.94;87.67;101369.62;83875;1259;3011594;-73
2023/01/28 07:29:56;;;;;;;21.70;14.70;;;;;;;0.93;87.69;101372.86;82574;1259;3024957;-74
2023/01/28 07:32:28;;;;;;;19.30;13.60;;;;;;;0.92;87.82;101372.67;83776;1254;3011191;-72
2023/01/28 07:35:08;;;;;;;20.50;13.70;;;;;;;0.92;87.79;101376.46;82604;1259;3026020;-72
2023/01/28 07:37:42;;;;;;;18.60;13.40;;;;;;;0.94;87.82;101377.37;82561;1255;3024908;-73
2023/01/28 07:40:17;;;;;;;19.50;13.90;;;;;;;0.97;87.68;101375.34;83023;1257;3483335;-73
2023/01/28 07:42:47;;;;;;;22.20;14.90;;;;;;;0.99;87.80;101382.23;83910;1259;3011568;-73
2023/01/28 07:45:20;;;;;;;19.30;14.60;;;;;;;1.00;87.80;101380.38;82586;1256;3028314;-72
2023/01/28 07:47:56;;;;;;;18.50;14.20;;;;;;;0.99;87.70;101386.54;83882;1255;3011588;-72
2023/01/28 07:50:30;;;;;;;21.90;13.90;;;;;;;0.98;87.82;101387.89;82580;1259;3026200;-70
2023/01/28 07:53:05;;;;;;;18.10;12.00;;;;;;;0.96;87.71;101387.17;82574;1255;3026397;-72
2023/01/28 07:55:36;;;;;;;18.70;13.40;;;;;;;0.96;87.69;101388.55;83923;1254;3011159;-72
2023/01/28 07:58:11;;;;;;;19.50;14.10;;;;;;;0.97;87.65;101387.01;82569;1256;3024593;-72
2023/01/28 08:00:46;;;;;;;17.40;12.90;;;;;;;0.97;87.70;101384.27;83373;1256;3011533;-73
2023/01/28 08:03:20;;;;;;;23.90;13.80;;;;;;;0.96;87.68;101382.20;82581;1256;3025293;-69
2023/01/28 08:05:54;;;;;;;19.90;14.00;;;;;;;0.95;87.65;101381.65;83909;1256;3011601;-73
2023/01/28 08:08:28;;;;;;;20.10;13.90;;;;;;;0.92;87.78;101378.34;82473;1256;3026221;-72
2023/01/28 08:10:59;;;;;;;20.40;13.20;;;;;;;0.93;87.78;101377.17;83934;1259;3011799;-73
2023/01/28 08:13:32;;;;;;;16.80;12.20;;;;;;;0.95;87.79;101378.75;82574;1256;3025924;-71
2023/01/28 08:16:04;;;;;;;17.30;13.60;;;;;;;0.96;87.81;101376.53;83929;1259;3012870;-73
2023/01/28 08:18:37;;;;;;;18.10;14.10;;;;;;;0.98;87.76;101376.21;82511;1259;3025682;-73
2023/01/28 08:21:08;;;;;;;18.00;13.40;;;;;;;0.98;87.79;101379.13;83783;1262;3011490;-72
2023/01/28 08:23:40;;;;;;;20.40;14.40;;;;;;;0.98;87.70;101376.73;82577;1259;3025022;-71
2023/01/28 08:26:10;;;;;;;20.40;14.40;;;;;;;0.97;87.68;101374.48;83919;1259;3011546;-74
2023/01/28 08:28:45;;;;;;;17.70;13.30;;;;;;;0.97;87.75;101376.52;82439;1256;3025094;-73
2023/01/28 08:31:18;;;;;;;17.00;13.10;;;;;;;0.98;87.71;101376.71;83373;1259;3013222;-73
2023/01/28 08:33:55;;;;;;;17.60;13.30;;;;;;;1.00;87.58;101376.25;83722;1256;3011632;-73
2023/01/28 08:36:29;;;;;;;20.00;14.60;;;;;;;1.02;87.61;101373.35;82606;1256;3025506;-74
2023/01/28 08:39:00;;;;;;;18.80;14.30;;;;;;;1.02;87.49;101372.67;83872;1259;3011389;-73
2023/01/28 08:41:32;;;;;;;20.10;15.00;;;;;;;0.99;87.59;101367.98;82597;1255;3025426;-71
2023/01/28 08:44:04;;;;;;;21.50;14.50;;;;;;;0.98;87.48;101376.21;83899;1257;3013478;-72
2023/01/28 08:46:38;;;;;;;18.90;13.90;;;;;;;0.98;87.54;101378.79;82519;1258;3025489;-73
2023/01/28 08:49:10;;;;;;;17.10;13.10;;;;;;;1.00;87.63;101376.61;83882;1256;3011614;-71
2023/01/28 08:51:46;;;;;;;17.20;13.50;;;;;;;1.06;87.69;101374.45;82454;1255;3026103;-71
2023/01/28 08:54:19;;;;;;;19.30;14.60;;;;;;;1.08;87.56;101375.17;82618;1256;3026087;-71
2023/01/28 08:56:50;;;;;;;19.00;14.00;;;;;;;1.11;87.54;101380.21;83767;1262;3011732;-70
2023/01/28 08:59:24;;;;;;;19.30;15.30;;;;;;;1.12;87.55;101382.11;82583;1256;3025515;-72
2023/01/28 09:01:58;;;;;;;19.00;14.30;;;;;;;1.14;87.65;101381.64;83391;1257;3011564;-73
2023/01/28 09:04:29;;;;;;;15.40;12.70;;;;;;;1.12;87.27;101385.22;83915;1259;3011566;-70
2023/01/28 09:07:02;;;;;;;18.50;14.50;;;;;;;1.12;87.23;101388.83;82602;1259;3026402;-72
2023/01/28 09:09:33;;;;;;;19.60;15.10;;;;;;;1.11;87.16;101394.98;83915;1256;3011702;-73
2023/01/28 09:12:10;;;;;;;18.30;14.50;;;;;;;1.07;87.10;101394.58;82581;1256;3026106;-74
2023/01/28 09:14:44;;;;;;;21.60;15.40;;;;;;;1.05;87.23;101400.73;82625;1254;3025691;-72
2023/01/28 09:17:19;;;;;;;17.40;14.10;;;;;;;1.03;87.22;101401.23;83881;1258;3011361;-72
2023/01/28 09:19:51;;;;;;;15.90;12.60;;;;;;;1.01;87.18;101402.38;82591;1259;3025635;-71
2023/01/28 09:22:23;;;;;;;18.00;12.70;;;;;;;1.02;87.24;101408.60;83884;1259;3011503;-72
2023/01/28 09:24:58;;;;;;;18.60;14.00;;;;;;;1.04;87.25;101409.30;82597;1259;3025531;-72
2023/01/28 09:27:32;;;;;;;20.20;14.60;;;;;;;1.03;87.31;101407.07;82632;1256;3026010;-72
2023/01/28 09:30:04;;;;;;;19.70;16.00;;;;;;;1.04;87.42;101408.11;83912;1259;3011616;-72
2023/01/28 09:32:39;;;;;;;17.10;14.00;;;;;;;1.05;87.42;101404.86;82500;1256;3025760;-72
2023/01/28 09:35:16;;;;;;;17.50;13.20;;;;;;;1.07;87.48;101407.80;83333;1259;3011427;-70
2023/01/28 09:37:50;;;;;;;27.60;16.10;;;;;;;1.07;87.24;101409.02;82583;1259;3026031;-73
2023/01/28 09:40:29;;;;;;;27.10;17.10;;;;;;;1.05;87.18;101409.33;83907;1259;3011392;-72
2023/01/28 09:43:50;;;;;;;25.40;16.90;;;;;;;1.06;87.31;101408.65;82599;1254;3025804;-72
2023/01/28 09:46:22;;;;;;;20.10;14.80;;;;;;;1.08;87.40;101408.86;82476;1265;3026381;-72
2023/01/28 09:48:57;;;;;;;19.00;14.10;;;;;;;1.07;87.27;101405.05;83872;1259;3011652;-72
2023/01/28 09:51:36;;;;;;;16.50;13.80;;;;;;;1.05;87.26;101406.75;82585;1256;3025390;-72
2023/01/28 09:54:18;;;;;;;20.30;14.30;;;;;;;1.08;87.43;101406.27;82577;1256;3026265;-72
2023/01/28 09:56:53;;;;;;;24.20;16.00;;;;;;;1.12;87.31;101411.34;82596;1254;3027508;-72
2023/01/28 09:59:28;;;;;;;24.30;17.10;;;;;;;1.13;87.26;101415.48;83332;1259;3011848;-73
2023/01/28 10:02:24;;;;;;;22.50;15.50;;;;;;;1.13;87.22;101407.91;82546;1256;3025497;-72
2023/01/28 10:05:11;;;;;;;21.10;15.60;;;;;;;1.11;87.31;101405.99;82518;1256;3025586;-72
2023/01/28 10:07:50;;;;;;;18.70;13.80;;;;;;;1.11;87.37;101404.27;82605;1255;3025468;-71
2023/01/28 10:10:27;;;;;;;18.80;13.70;;;;;;;1.12;87.23;101404.28;82598;1259;3025421;-71
2023/01/28 10:13:12;;;;;;;16.20;12.90;;;;;;;1.12;87.09;101399.13;82590;1259;3024677;-73
2023/01/28 10:16:26;;;;;;;15.50;12.70;;;;;;;1.14;87.15;101394.36;82607;1257;3025705;-72
2023/01/28 10:19:09;;;;;;;18.30;13.60;;;;;;;1.15;87.10;101391.28;82586;1256;3025683;-70
2023/01/28 10:21:46;;;;;;;19.30;14.80;;;;;;;1.18;87.26;101397.86;82629;1259;3025839;-73
2023/01/28 10:24:25;;;;;;;16.60;13.40;;;;;;;1.17;87.20;101397.68;82427;1257;3026490;-74
2023/01/28 10:27:08;;;;;;;19.20;14.50;;;;;;;1.18;87.19;101396.48;82640;1254;3025778;-71
2023/01/28 10:29:45;;;;;;;20.40;15.30;;;;;;;1.21;87.19;101390.86;82609;1257;3026059;-71
2023/01/28 10:32:29;;;;;;;22.40;16.60;;;;;;;1.22;87.17;101385.73;82622;1255;3026134;-71
2023/01/28 10:35:08;;;;;;;23.10;17.20;;;;;;;1.24;87.21;101382.84;82713;1260;3027103;-71
2023/01/28 10:37:51;;;;;;;24.90;18.10;;;;;;;1.24;87.06;101382.66;82585;1259;3026066;-71
2023/01/28 10:40:23;;;;;;;25.60;17.90;;;;;;;1.22;87.15;101382.12;82611;1255;3026014;-72
2023/01/28 10:42:58;;;;;;;23.50;16.30;;;;;;;1.21;87.29;101379.19;83904;1257;3013348;-74
2023/01/28 10:45:36;;;;;;;20.60;15.90;;;;;;;1.22;87.11;101378.33;82499;1256;3025861;-73
2023/01/28 10:48:15;;;;;;;21.20;15.30;;;;;;;1.25;87.16;101378.91;82581;1259;3026073;-71
2023/01/28 10:50:52;;;;;;;22.40;17.00;;;;;;;1.24;87.01;101375.98;82628;1259;3025837;-73
2023/01/28 10:53:37;;;;;;;24.30;17.70;;;;;;;1.25;87.03;101373.91;82589;1257;3026350;-73
2023/01/28 10:56:11;;;;;;;24.00;17.80;;;;;;;1.27;87.19;101381.15;82435;1260;3026041;-73
2023/01/28 10:59:00;;;;;;;23.40;18.20;;;;;;;1.26;87.04;101378.23;83916;1259;3011668;-74
2023/01/28 11:01:44;;;;;;;20.50;15.90;;;;;;;1.23;86.93;101375.95;82591;1259;3026725;-73
2023/01/28 11:04:24;;;;;;;20.20;16.10;;;;;;;1.22;87.03;101376.10;82552;1259;3026130;-75
2023/01/28 11:07:02;;;;;;;20.90;16.20;;;;;;;1.23;86.97;101375.44;82633;1256;3025781;-70
2023/01/28 11:09:38;;;;;;;22.30;16.70;;;;;;;1.25;87.14;101372.20;82548;1255;3025509;-71
2023/01/28 11:12:21;;;;;;;23.00;17.50;;;;;;;1.27;87.05;101370.86;82587;1254;3025824;-71
2023/01/28 11:14:54;;;;;;;23.80;18.30;;;;;;;1.26;86.97;101363.80;82602;1257;3026054;-73
2023/01/28 11:17:30;;;;;;;22.60;17.10;;;;;;;1.24;86.95;101362.73;82590;1257;3026295;-70
2023/01/28 11:20:17;;;;;;;19.10;14.60;;;;;;;1.23;87.00;101368.73;82563;1259;3026457;-77
2023/01/28 11:22:53;;;;;;;21.40;16.40;;;;;;;1.25;87.04;101367.05;82561;1257;3025109;-75
2023/01/28 11:25:34;;;;;;;21.60;16.30;;;;;;;1.27;87.00;101361.73;83947;1259;3011598;-72
2023/01/28 11:28:15;;;;;;;19.90;16.00;;;;;;;1.29;87.08;101363.85;82612;1259;3026631;-73
2023/01/28 11:30:53;;;;;;;22.70;17.00;;;;;;;1.30;87.05;101362.46;82484;1260;3027169;-72
2023/01/28 11:33:28;;;;;;;21.00;16.60;;;;;;;1.31;87.12;101353.90;82581;1259;3025551;-74
2023/01/28 11:36:13;;;;;;;19.10;14.70;;;;;;;1.31;86.85;101355.45;82583;1256;3026162;-74
2023/01/28 11:38:54;;;;;;;17.20;14.30;;;;;;;1.29;86.65;101349.05;82454;1262;3029612;-75
2023/01/28 11:41:32;;;;;;;19.70;15.60;;;;;;;1.29;86.58;101346.64;82569;1255;3025460;-71
2023/01/28 11:44:13;;;;;;;21.10;15.60;;;;;;;1.29;86.53;101348.36;82601;1255;3026308;-71
2023/01/28 11:47:06;;;;;;;19.50;15.20;;;;;;;1.28;86.55;101347.16;82595;1257;3026224;-72
2023/01/28 11:49:51;;;;;;;19.60;15.90;;;;;;;1.26;86.45;101350.73;82573;1260;3026875;-72
2023/01/28 11:52:29;;;;;;;20.40;15.10;;;;;;;1.22;86.41;101348.77;82567;1268;3025472;-71
2023/01/28 11:55:19;;;;;;;17.90;14.00;;;;;;;1.22;86.54;101349.45;82605;1264;3025242;-73
2023/01/28 11:57:57;;;;;;;19.20;15.20;;;;;;;1.21;86.54;101343.10;82588;1254;3024581;-72
2023/01/28 12:00:40;;;;;;;18.50;15.20;;;;;;;1.21;86.65;101344.80;82605;1256;3025733;-74
2023/01/28 12:04:11;;;;;;;18.80;15.30;;;;;;;1.21;86.47;101347.90;82573;1256;3025633;-74
2023/01/28 12:07:02;;;;;;;21.10;16.00;;;;;;;1.17;86.57;101347.33;82626;1260;3026447;-72
2023/01/28 12:09:49;;;;;;;23.90;16.50;;;;;;;1.14;86.61;101348.30;82596;1268;3027230;-72
2023/01/28 12:12:48;;;;;;;22.70;17.20;;;;;;;1.14;86.67;101344.86;82446;1257;3025478;-72
2023/01/28 12:15:56;;;;;;;20.80;16.50;;;;;;;1.15;86.83;101343.68;82485;1268;3026984;-73